createdAt,value
2023-04-16T00:02:18.214Z,78.67
2023-04-16T00:05:08.363Z,79.03
2023-04-16T00:07:57.572Z,79.05
2023-04-16T00:10:48.158Z,79.12
2023-04-16T00:13:38.269Z,78.78
2023-04-16T00:16:27.892Z,79.29
2023-04-16T00:19:17.569Z,79.55
2023-04-16T00:22:06.923Z,79.60
2023-04-16T00:24:56.211Z,79.14
2023-04-16T00:27:46.739Z,79.34
2023-04-16T00:30:36.126Z,79.34
2023-04-16T00:33:25.717Z,79.73
2023-04-16T00:36:14.864Z,79.58
2023-04-16T00:39:04.173Z,79.93
2023-04-16T00:41:53.637Z,79.98
2023-04-16T00:44:44.322Z,80.12
2023-04-16T00:47:33.818Z,80.37
2023-04-16T00:50:24.457Z,81.01
2023-04-16T00:53:14.375Z,80.80
2023-04-16T00:56:05.768Z,80.95
2023-04-16T00:58:56.984Z,81.13
2023-04-16T01:01:47.654Z,81.07
2023-04-16T01:04:37.376Z,81.00
2023-04-16T01:07:26.869Z,81.42
2023-04-16T01:10:16.074Z,81.24
2023-04-16T01:13:05.355Z,81.09
2023-04-16T01:15:54.880Z,81.04
2023-04-16T01:18:46.166Z,81.11
2023-04-16T01:21:36.919Z,81.32
2023-04-16T01:24:26.442Z,80.94
2023-04-16T01:27:15.788Z,81.80
2023-04-16T01:30:06.739Z,82.15
2023-04-16T01:33:18.169Z,81.84
2023-04-16T01:36:08.336Z,81.50
2023-04-16T01:38:58.983Z,81.56
2023-04-16T01:41:49.448Z,81.37
2023-04-16T01:44:38.613Z,81.71
2023-04-16T01:47:27.933Z,82.14
2023-04-16T01:50:17.580Z,81.58
2023-04-16T01:53:06.891Z,82.06
2023-04-16T01:55:57.534Z,82.34
2023-04-16T01:58:47.518Z,82.43
2023-04-16T02:01:38.744Z,82.46
2023-04-16T02:04:28.119Z,82.23
2023-04-16T02:07:17.483Z,82.70
2023-04-16T02:10:10.375Z,82.70
2023-04-16T02:13:03.219Z,83.17
2023-04-16T02:15:53.456Z,82.46
2023-04-16T02:18:57.637Z,82.71
2023-04-16T02:21:47.772Z,83.03
2023-04-16T02:24:37.685Z,82.83
2023-04-16T02:27:30.725Z,83.59
2023-04-16T02:30:29.980Z,82.96
2023-04-16T02:33:20.401Z,83.30
2023-04-16T02:36:19.965Z,83.29
2023-04-16T02:39:09.658Z,83.68
2023-04-16T02:41:59.539Z,83.61
2023-04-16T02:44:49.295Z,83.81
2023-04-16T02:47:40.022Z,83.10
2023-04-16T02:50:29.272Z,83.60
2023-04-16T02:53:18.831Z,83.38
2023-04-16T02:56:09.071Z,83.61
2023-04-16T02:58:58.206Z,82.72
2023-04-16T03:01:47.648Z,83.34
2023-04-16T03:04:38.504Z,83.70
2023-04-16T03:07:28.117Z,84.10
2023-04-16T03:10:17.409Z,83.72
2023-04-16T03:13:06.987Z,83.82
2023-04-16T03:15:56.303Z,84.42
2023-04-16T03:18:45.572Z,84.46
2023-04-16T03:21:36.237Z,84.98
2023-04-16T03:24:26.209Z,85.05
2023-04-16T03:27:15.818Z,84.80
2023-04-16T03:30:05.936Z,85.01
2023-04-16T03:32:56.992Z,84.88
2023-04-16T03:35:46.937Z,85.05
2023-04-16T03:38:38.386Z,84.81
2023-04-16T03:41:27.645Z,84.82
2023-04-16T03:44:17.082Z,84.92
2023-04-16T03:47:07.533Z,84.98
2023-04-16T03:49:57.463Z,85.01
2023-04-16T03:52:47.122Z,85.01
2023-04-16T03:55:38.633Z,85.60
2023-04-16T03:58:27.920Z,85.18
2023-04-16T04:01:18.964Z,85.29
2023-04-16T04:04:09.704Z,85.49
2023-04-16T04:06:59.836Z,85.33
2023-04-16T04:09:50.274Z,85.31
2023-04-16T04:12:40.873Z,85.81
2023-04-16T04:15:30.238Z,85.32
2023-04-16T04:18:19.620Z,85.74
2023-04-16T04:21:09.194Z,85.17
2023-04-16T04:23:58.634Z,85.61
2023-04-16T04:26:47.846Z,85.41
2023-04-16T04:29:38.890Z,85.81
2023-04-16T04:32:28.611Z,85.67
2023-04-16T04:35:17.901Z,86.04
2023-04-16T04:38:07.185Z,85.74
2023-04-16T04:40:57.657Z,86.28
2023-04-16T04:43:48.909Z,85.87
2023-04-16T04:46:40.935Z,86.18
2023-04-16T04:49:30.671Z,86.32
2023-04-16T04:52:20.580Z,86.07
2023-04-16T04:55:10.800Z,86.72
2023-04-16T04:58:00.161Z,86.28
2023-04-16T05:00:49.475Z,86.53
2023-04-16T05:03:40.229Z,86.94
2023-04-16T05:06:29.654Z,86.86
2023-04-16T05:09:18.856Z,87.34
2023-04-16T05:12:08.283Z,86.85
2023-04-16T05:14:57.542Z,87.55
2023-04-16T05:17:46.810Z,87.37
2023-04-16T05:20:38.103Z,87.25
2023-04-16T05:23:27.311Z,87.44
2023-04-16T05:26:16.711Z,87.26
2023-04-16T05:29:06.048Z,87.09
2023-04-16T05:31:55.410Z,87.11
2023-04-16T05:34:44.637Z,87.44
2023-04-16T05:37:35.305Z,87.35
2023-04-16T05:40:24.514Z,87.29
2023-04-16T05:43:13.811Z,87.45
2023-04-16T05:46:03.152Z,87.94
2023-04-16T05:48:52.378Z,88.06
2023-04-16T05:51:41.597Z,88.20
2023-04-16T05:54:32.263Z,87.81
2023-04-16T05:57:21.493Z,87.82
2023-04-16T06:00:11.527Z,88.51
2023-04-16T06:03:04.711Z,88.84
2023-04-16T06:05:54.132Z,90.87
2023-04-16T06:08:43.344Z,90.88
2023-04-16T06:11:36.280Z,91.28
2023-04-16T06:14:25.395Z,91.31
2023-04-16T06:17:14.478Z,90.62
2023-04-16T06:20:03.860Z,91.04
2023-04-16T06:22:53.188Z,91.38
2023-04-16T06:25:42.366Z,91.28
2023-04-16T06:28:33.106Z,90.94
2023-04-16T06:31:22.517Z,91.03
2023-04-16T06:34:11.884Z,90.34
2023-04-16T06:37:01.512Z,90.03
2023-04-16T06:39:50.748Z,89.95
2023-04-16T06:42:40.040Z,89.95
2023-04-16T06:45:30.791Z,90.07
2023-04-16T06:48:20.059Z,90.01
2023-04-16T06:51:09.381Z,90.02
2023-04-16T06:53:58.723Z,90.21
2023-04-16T06:56:47.900Z,89.95
2023-04-16T06:59:37.103Z,89.99
2023-04-16T07:02:27.975Z,90.23
2023-04-16T07:05:17.380Z,89.85
2023-04-16T07:08:06.961Z,90.10
2023-04-16T07:10:56.303Z,89.97
2023-04-16T07:13:45.516Z,89.85
2023-04-16T07:16:34.825Z,90.02
2023-04-16T07:19:25.835Z,90.58
2023-04-16T07:22:15.056Z,90.49
2023-04-16T07:25:04.982Z,90.38
2023-04-16T07:27:54.217Z,90.09
2023-04-16T07:30:43.433Z,90.22
2023-04-16T07:33:32.686Z,90.28
2023-04-16T07:36:23.613Z,90.67
2023-04-16T07:39:13.353Z,90.43
2023-04-16T07:42:02.839Z,90.73
2023-04-16T07:44:52.036Z,90.74
2023-04-16T07:47:41.315Z,90.64
2023-04-16T07:50:30.602Z,90.63
2023-04-16T07:53:21.311Z,90.71
2023-04-16T07:56:10.992Z,90.26
2023-04-16T07:59:07.879Z,90.30
2023-04-16T08:02:09.104Z,90.34
2023-04-16T08:04:58.635Z,89.92
2023-04-16T08:07:47.930Z,90.07
2023-04-16T08:10:38.524Z,90.19
2023-04-16T08:13:27.740Z,89.91
2023-04-16T08:16:17.081Z,89.57
2023-04-16T08:19:06.555Z,89.46
2023-04-16T08:21:56.636Z,89.38
2023-04-16T08:24:45.838Z,89.17
2023-04-16T08:27:36.490Z,89.19
2023-04-16T08:30:25.873Z,89.20
2023-04-16T08:33:15.627Z,89.22
2023-04-16T08:36:05.836Z,88.83
2023-04-16T08:38:55.205Z,88.56
2023-04-16T08:41:48.049Z,88.97
2023-04-16T08:44:43.111Z,88.78
2023-04-16T08:47:36.551Z,88.92
2023-04-16T08:50:28.429Z,88.85
2023-04-16T08:53:24.315Z,88.16
2023-04-16T08:56:14.805Z,87.94
2023-04-16T08:59:05.829Z,88.76
2023-04-16T09:02:00.220Z,88.58
2023-04-16T09:04:52.098Z,88.31
2023-04-16T09:07:43.018Z,88.11
2023-04-16T09:10:32.598Z,87.99
2023-04-16T09:13:23.646Z,86.56
2023-04-16T09:16:14.032Z,87.06
2023-04-16T09:19:05.145Z,87.66
2023-04-16T09:21:54.577Z,87.26
2023-04-16T09:24:43.995Z,87.81
2023-04-16T09:27:33.417Z,86.04
2023-04-16T09:30:28.444Z,85.68
2023-04-16T09:33:23.044Z,85.87
2023-04-16T09:36:14.002Z,84.17
2023-04-16T09:39:04.986Z,84.19
2023-04-16T09:41:56.560Z,83.35
2023-04-16T09:44:46.310Z,83.47
2023-04-16T09:47:46.503Z,80.17
2023-04-16T09:50:35.899Z,81.04
2023-04-16T09:53:31.098Z,80.44
2023-04-16T09:56:24.887Z,80.50
2023-04-16T09:59:19.076Z,79.01
2023-04-16T10:02:15.226Z,81.24
2023-04-16T10:05:08.722Z,80.30
2023-04-16T10:08:02.450Z,80.30
2023-04-16T10:10:57.288Z,80.05
2023-04-16T10:13:46.958Z,79.70
2023-04-16T10:16:36.534Z,79.17
2023-04-16T10:19:27.048Z,77.20
2023-04-16T10:22:16.552Z,76.72
2023-04-16T10:25:07.462Z,77.10
2023-04-16T10:28:00.179Z,76.53
2023-04-16T10:30:53.783Z,76.09
2023-04-16T10:33:45.541Z,76.25
2023-04-16T10:36:40.396Z,75.63
2023-04-16T10:39:30.601Z,75.06
2023-04-16T10:42:19.998Z,75.96
2023-04-16T10:45:13.079Z,75.55
2023-04-16T10:48:06.098Z,74.44
2023-04-16T10:51:00.469Z,74.74
2023-04-16T10:53:50.286Z,74.82
2023-04-16T10:56:39.907Z,73.18
2023-04-16T10:59:35.019Z,74.30
2023-04-16T11:02:30.444Z,74.27
2023-04-16T11:05:27.900Z,72.90
2023-04-16T11:08:17.663Z,72.28
2023-04-16T11:11:08.224Z,71.78
2023-04-16T11:13:58.492Z,70.68
2023-04-16T11:16:47.996Z,68.73
2023-04-16T11:19:39.464Z,68.47
2023-04-16T11:22:29.229Z,67.24
2023-04-16T11:25:22.566Z,62.97
2023-04-16T11:28:11.962Z,65.38
2023-04-16T11:31:01.415Z,63.83
2023-04-16T11:33:51.631Z,62.36
2023-04-16T11:36:51.171Z,58.21
2023-04-16T11:39:52.107Z,58.53
2023-04-16T11:42:44.375Z,52.02
2023-04-16T11:45:34.177Z,53.53
2023-04-16T11:48:23.557Z,55.11
2023-04-16T11:51:12.788Z,54.84
2023-04-16T11:54:04.038Z,51.70
2023-04-16T11:56:54.641Z,51.72
2023-04-16T12:00:01.554Z,46.03
2023-04-16T12:03:04.494Z,49.94
2023-04-16T12:05:53.818Z,47.64
2023-04-16T12:08:44.188Z,46.67
2023-04-16T12:11:41.910Z,41.44
2023-04-16T12:14:31.715Z,44.21
2023-04-16T12:17:22.136Z,40.51
2023-04-16T12:20:13.030Z,39.49
2023-04-16T12:23:02.285Z,40.33
2023-04-16T12:25:52.137Z,41.40
2023-04-16T12:28:43.232Z,41.56
2023-04-16T12:31:39.311Z,39.65
2023-04-16T12:34:48.581Z,40.03
2023-04-16T12:37:38.412Z,40.52
2023-04-16T12:40:28.218Z,39.85
2023-04-16T12:43:17.503Z,39.47
2023-04-16T12:46:09.628Z,39.20
2023-04-16T12:48:59.115Z,39.96
2023-04-16T12:51:54.104Z,40.24
2023-04-16T12:54:46.551Z,41.67
2023-04-16T12:57:35.901Z,42.11
2023-04-16T13:00:25.602Z,43.06
2023-04-16T13:03:17.958Z,44.36
2023-04-16T13:06:07.554Z,45.53
2023-04-16T13:08:57.430Z,46.69
2023-04-16T13:11:46.938Z,46.95
2023-04-16T13:14:36.433Z,47.34
2023-04-16T13:17:26.085Z,45.86
2023-04-16T13:20:16.853Z,45.92
2023-04-16T13:23:06.149Z,45.39
2023-04-16T13:25:55.538Z,44.61
2023-04-16T13:28:44.791Z,43.94
2023-04-16T13:31:34.112Z,43.48
2023-04-16T13:34:23.452Z,43.92
2023-04-16T13:37:14.453Z,43.60
2023-04-16T13:40:03.866Z,43.35
2023-04-16T13:42:53.412Z,42.77
2023-04-16T13:45:42.693Z,42.65
2023-04-16T13:48:32.853Z,41.46
2023-04-16T13:51:22.193Z,41.68
2023-04-16T13:54:13.004Z,41.50
2023-04-16T13:57:02.572Z,40.09
2023-04-16T13:59:52.296Z,40.14
2023-04-16T14:02:42.346Z,41.03
2023-04-16T14:05:31.856Z,41.93
2023-04-16T14:08:22.451Z,42.24
2023-04-16T14:11:13.773Z,42.82
2023-04-16T14:14:03.108Z,42.53
2023-04-16T14:16:52.468Z,42.08
2023-04-16T14:19:42.116Z,41.80
2023-04-16T14:22:31.458Z,42.41
2023-04-16T14:25:20.868Z,42.18
2023-04-16T14:28:14.333Z,42.33
2023-04-16T14:31:05.714Z,43.19
2023-04-16T14:33:55.098Z,43.27
2023-04-16T14:36:44.620Z,43.00
2023-04-16T14:39:34.007Z,42.95
2023-04-16T14:42:23.625Z,42.85
2023-04-16T14:45:14.536Z,43.38
2023-04-16T14:48:03.868Z,43.98
2023-04-16T14:50:53.172Z,44.39
2023-04-16T14:53:45.182Z,44.45
2023-04-16T14:56:34.529Z,45.69
2023-04-16T14:59:23.794Z,46.45
2023-04-16T15:02:14.733Z,46.78
2023-04-16T15:05:04.224Z,47.13
2023-04-16T15:07:53.866Z,47.06
2023-04-16T15:10:43.448Z,47.45
2023-04-16T15:13:34.766Z,47.38
2023-04-16T15:16:24.911Z,46.93
2023-04-16T15:19:15.623Z,45.25
2023-04-16T15:22:04.883Z,45.34
2023-04-16T15:24:54.210Z,45.31
2023-04-16T15:27:43.384Z,44.84
2023-04-16T15:30:33.046Z,44.89
2023-04-16T15:33:23.087Z,44.75
2023-04-16T15:36:13.828Z,45.29
2023-04-16T15:39:03.255Z,45.74
2023-04-16T15:42:01.566Z,45.89
2023-04-16T15:44:52.133Z,46.05
2023-04-16T15:47:42.130Z,45.87
2023-04-16T15:50:31.476Z,45.56
2023-04-16T15:53:22.419Z,45.84
2023-04-16T15:56:11.819Z,46.50
2023-04-16T15:59:01.240Z,47.26
2023-04-16T16:01:50.629Z,48.18
2023-04-16T16:04:45.879Z,48.60
2023-04-16T16:07:35.573Z,48.94
2023-04-16T16:10:26.611Z,49.37
2023-04-16T16:13:18.321Z,49.39
2023-04-16T16:16:07.744Z,49.37
2023-04-16T16:18:58.229Z,49.26
2023-04-16T16:21:47.512Z,49.64
2023-04-16T16:24:36.771Z,49.80
2023-04-16T16:27:27.498Z,49.68
2023-04-16T16:30:16.754Z,49.42
2023-04-16T16:33:06.123Z,49.12
2023-04-16T16:35:55.447Z,49.48
2023-04-16T16:38:47.403Z,49.27
2023-04-16T16:41:42.019Z,49.38
2023-04-16T16:44:32.724Z,49.72
2023-04-16T16:47:22.046Z,49.83
2023-04-16T16:50:12.604Z,50.24
2023-04-16T16:53:02.128Z,50.66
2023-04-16T16:55:51.408Z,50.86
2023-04-16T16:58:40.703Z,51.24
2023-04-16T17:01:31.798Z,51.68
2023-04-16T17:04:21.204Z,51.86
2023-04-16T17:07:10.911Z,51.65
2023-04-16T17:10:03.732Z,51.92
2023-04-16T17:12:54.831Z,52.07
2023-04-16T17:15:44.182Z,52.56
2023-04-16T17:18:35.174Z,53.14
2023-04-16T17:21:24.464Z,53.23
2023-04-16T17:24:13.911Z,53.41
2023-04-16T17:27:04.377Z,53.67
2023-04-16T17:29:59.959Z,53.79
2023-04-16T17:32:49.293Z,54.00
2023-04-16T17:35:41.391Z,53.76
2023-04-16T17:38:30.810Z,53.60
2023-04-16T17:41:20.687Z,53.79
2023-04-16T17:44:11.720Z,53.74
2023-04-16T17:47:02.246Z,53.80
2023-04-16T17:49:55.310Z,54.12
2023-04-16T17:52:47.317Z,54.23
2023-04-16T17:55:37.751Z,54.36
2023-04-16T17:58:27.440Z,54.66
2023-04-16T18:01:16.684Z,54.74
2023-04-16T18:04:07.384Z,55.15
2023-04-16T18:06:56.722Z,55.27
2023-04-16T18:09:47.915Z,55.37
2023-04-16T18:12:37.271Z,55.64
2023-04-16T18:15:26.925Z,55.99
2023-04-16T18:18:16.497Z,56.16
2023-04-16T18:21:05.865Z,56.53
2023-04-16T18:23:55.097Z,56.61
2023-04-16T18:26:47.063Z,56.99
2023-04-16T18:29:38.814Z,57.25
2023-04-16T18:32:31.059Z,57.49
2023-04-16T18:35:20.876Z,57.54
2023-04-16T18:38:10.353Z,57.81
2023-04-16T18:40:59.828Z,57.95
2023-04-16T18:43:51.010Z,58.14
2023-04-16T18:46:41.197Z,58.24
2023-04-16T18:49:30.480Z,58.78
2023-04-16T18:52:19.747Z,58.87
2023-04-16T18:55:10.402Z,59.35
2023-04-16T18:57:59.719Z,59.41
2023-04-16T19:00:55.085Z,59.46
2023-04-16T19:03:44.493Z,59.76
2023-04-16T19:06:33.811Z,59.77
2023-04-16T19:09:27.643Z,59.95
2023-04-16T19:12:16.866Z,60.05
2023-04-16T19:15:07.028Z,60.39
2023-04-16T19:17:57.772Z,60.47
2023-04-16T19:20:47.215Z,60.53
2023-04-16T19:23:36.599Z,61.01
2023-04-16T19:26:26.552Z,61.00
2023-04-16T19:29:18.008Z,61.39
2023-04-16T19:32:07.595Z,61.55
2023-04-16T19:34:58.280Z,61.47
2023-04-16T19:37:47.548Z,61.64
2023-04-16T19:40:36.838Z,62.15
2023-04-16T19:43:28.038Z,62.09
2023-04-16T19:46:18.990Z,62.11
2023-04-16T19:49:08.618Z,62.40
2023-04-16T19:51:59.358Z,62.27
2023-04-16T19:54:49.068Z,62.83
2023-04-16T19:57:38.622Z,63.08
2023-04-16T20:00:28.111Z,63.17
2023-04-16T20:03:17.368Z,63.17
2023-04-16T20:06:08.037Z,63.27
2023-04-16T20:08:58.755Z,63.62
2023-04-16T20:11:48.183Z,63.49
2023-04-16T20:14:37.441Z,63.57
2023-04-16T20:17:26.723Z,63.74
2023-04-16T20:20:16.266Z,63.77
2023-04-16T20:23:05.646Z,63.67
2023-04-16T20:25:56.557Z,64.08
2023-04-16T20:28:46.054Z,64.39
2023-04-16T20:31:35.333Z,64.78
2023-04-16T20:34:24.654Z,64.64
2023-04-16T20:37:13.983Z,64.74
2023-04-16T20:40:05.421Z,64.93
2023-04-16T20:42:56.594Z,65.48
2023-04-16T20:45:46.177Z,65.55
2023-04-16T20:48:35.817Z,65.89
2023-04-16T20:51:25.026Z,66.15
2023-04-16T20:54:14.242Z,65.96
2023-04-16T20:57:04.827Z,66.00
2023-04-16T20:59:55.868Z,66.12
2023-04-16T21:02:45.574Z,65.77
2023-04-16T21:05:35.122Z,66.20
2023-04-16T21:08:25.193Z,65.89
2023-04-16T21:11:14.366Z,66.27
2023-04-16T21:14:03.822Z,66.35
2023-04-16T21:16:54.914Z,66.77
2023-04-16T21:19:44.218Z,66.55
2023-04-16T21:22:33.548Z,66.84
2023-04-16T21:25:22.836Z,67.07
2023-04-16T21:28:12.199Z,67.15
2023-04-16T21:31:01.652Z,67.27
2023-04-16T21:33:52.348Z,67.50
2023-04-16T21:36:41.656Z,67.64
2023-04-16T21:39:31.189Z,68.02
2023-04-16T21:42:20.553Z,68.00
2023-04-16T21:45:11.159Z,68.03
2023-04-16T21:48:00.464Z,68.47
2023-04-16T21:50:58.195Z,68.72
2023-04-16T21:53:47.703Z,68.26
2023-04-16T21:56:36.887Z,68.52
2023-04-16T21:59:26.949Z,68.70
2023-04-16T22:02:16.807Z,69.00
2023-04-16T22:05:07.627Z,68.82
2023-04-16T22:07:58.347Z,69.17
2023-04-16T22:10:47.713Z,69.44
2023-04-16T22:13:38.400Z,69.29
2023-04-16T22:16:28.027Z,69.41
2023-04-16T22:19:18.312Z,69.46
2023-04-16T22:22:07.476Z,69.47
2023-04-16T22:24:59.328Z,69.58
2023-04-16T22:27:48.940Z,69.82
2023-04-16T22:30:38.209Z,69.78
2023-04-16T22:33:30.900Z,69.79
2023-04-16T22:36:21.084Z,69.41
2023-04-16T22:39:10.731Z,69.30
2023-04-16T22:42:02.086Z,68.76
2023-04-16T22:44:51.378Z,68.37
2023-04-16T22:47:41.769Z,67.65
2023-04-16T22:50:32.349Z,67.14
2023-04-16T22:53:21.974Z,66.15
2023-04-16T22:56:11.890Z,66.93
2023-04-16T22:59:02.453Z,66.08
2023-04-16T23:01:52.187Z,65.54
2023-04-16T23:04:41.620Z,65.87
2023-04-16T23:07:30.862Z,65.26
2023-04-16T23:10:20.150Z,65.24
2023-04-16T23:13:09.376Z,64.94
2023-04-16T23:16:00.532Z,64.85
2023-04-16T23:18:49.749Z,64.47
2023-04-16T23:21:39.028Z,64.74
2023-04-16T23:24:28.214Z,64.69
2023-04-16T23:27:17.409Z,64.30
2023-04-16T23:30:08.402Z,64.50
2023-04-16T23:32:59.108Z,64.82
2023-04-16T23:35:48.797Z,64.51
2023-04-16T23:38:38.070Z,64.99
2023-04-16T23:41:27.202Z,64.41
2023-04-16T23:44:16.523Z,64.43
2023-04-16T23:47:06.004Z,64.67
2023-04-16T23:49:56.736Z,64.90
2023-04-16T23:52:46.046Z,64.68
2023-04-16T23:55:35.334Z,64.73
2023-04-16T23:58:24.619Z,64.59
